createdAt,value
2018-06-20T00:01:12.331Z,2.87
2018-06-20T00:03:40.917Z,2.80
2018-06-20T00:06:09.590Z,2.67
2018-06-20T00:08:43.339Z,2.80
2018-06-20T00:11:11.982Z,2.80
2018-06-20T00:13:40.569Z,3.30
2018-06-20T00:16:09.161Z,2.93
2018-06-20T00:18:38.529Z,3.87
2018-06-20T00:21:07.095Z,3.10
2018-06-20T00:23:35.695Z,3.20
2018-06-20T00:26:04.275Z,3.43
2018-06-20T00:28:32.845Z,2.90
2018-06-20T00:31:01.430Z,3.30
2018-06-20T00:33:30.109Z,3.50
2018-06-20T00:35:58.696Z,3.10
2018-06-20T00:38:27.330Z,3.33
2018-06-20T00:40:55.950Z,3.60
2018-06-20T00:43:24.542Z,3.40
2018-06-20T00:45:53.161Z,4.10
2018-06-20T00:48:21.870Z,3.00
2018-06-20T00:50:50.481Z,3.70
2018-06-20T00:53:19.090Z,3.30
2018-06-20T00:55:58.601Z,3.40
2018-06-20T00:58:27.219Z,3.80
2018-06-20T01:00:55.845Z,3.30
2018-06-20T01:08:44.837Z,3.50
2018-06-20T01:11:13.720Z,3.60
2018-06-20T01:13:42.346Z,3.73
2018-06-20T01:16:11.273Z,3.20
2018-06-20T01:18:39.882Z,3.67
2018-06-20T01:21:08.562Z,4.00
2018-06-20T01:23:37.190Z,3.97
2018-06-20T01:26:05.854Z,3.90
2018-06-20T01:28:34.509Z,3.30
2018-06-20T01:31:03.182Z,3.90
2018-06-20T01:33:31.818Z,3.53
2018-06-20T01:36:00.414Z,3.40
2018-06-20T01:38:29.110Z,3.00
2018-06-20T01:40:57.766Z,4.30
2018-06-20T01:43:26.477Z,3.47
2018-06-20T01:45:55.158Z,4.17
2018-06-20T01:48:23.823Z,3.40
2018-06-20T01:50:55.747Z,3.77
2018-06-20T01:53:24.368Z,3.43
2018-06-20T01:55:53.124Z,3.33
2018-06-20T01:58:22.391Z,3.40
2018-06-20T02:00:51.091Z,3.70
2018-06-20T02:03:19.719Z,7.03
2018-06-20T02:05:49.074Z,12.90
2018-06-20T02:08:17.717Z,17.53
2018-06-20T02:10:46.366Z,15.07
2018-06-20T02:13:14.986Z,15.10
2018-06-20T02:15:43.600Z,16.37
2018-06-20T02:18:12.899Z,13.97
2018-06-20T02:20:41.614Z,12.60
2018-06-20T02:23:10.311Z,9.60
2018-06-20T02:25:38.937Z,6.83
2018-06-20T02:28:07.646Z,8.53
2018-06-20T02:30:36.307Z,5.67
2018-06-20T02:33:05.130Z,5.37
2018-06-20T02:35:33.820Z,5.87
2018-06-20T02:38:02.461Z,5.00
2018-06-20T02:40:31.236Z,4.67
2018-06-20T02:42:59.922Z,5.60
2018-06-20T02:45:28.633Z,4.60
2018-06-20T02:47:58.275Z,4.37
2018-06-20T02:50:26.953Z,4.40
2018-06-20T02:52:55.616Z,4.60
2018-06-20T02:55:24.446Z,4.43
2018-06-20T02:57:53.298Z,4.10
2018-06-20T03:00:22.574Z,4.90
2018-06-20T03:02:51.274Z,3.70
2018-06-20T03:05:19.953Z,4.50
2018-06-20T03:07:48.591Z,4.07
2018-06-20T03:10:17.239Z,3.87
2018-06-20T03:12:45.884Z,4.20
2018-06-20T03:15:14.550Z,4.40
2018-06-20T03:17:43.198Z,3.97
2018-06-20T03:20:12.403Z,4.43
2018-06-20T03:22:41.031Z,4.07
2018-06-20T03:25:09.782Z,4.47
2018-06-20T03:27:38.515Z,4.87
2018-06-20T03:30:07.222Z,4.20
2018-06-20T03:32:35.870Z,4.63
2018-06-20T03:35:04.534Z,4.27
2018-06-20T03:37:33.143Z,4.53
2018-06-20T03:40:01.821Z,5.03
2018-06-20T03:42:30.470Z,4.00
2018-06-20T03:44:59.119Z,4.13
2018-06-20T03:47:27.771Z,4.73
2018-06-20T03:49:56.431Z,4.00
2018-06-20T03:52:25.078Z,4.70
2018-06-20T03:54:54.034Z,4.33
2018-06-20T03:57:22.690Z,4.00
2018-06-20T03:59:51.347Z,3.50
2018-06-20T04:02:23.552Z,4.27
2018-06-20T04:04:52.794Z,4.00
2018-06-20T04:07:21.386Z,4.30
2018-06-20T04:09:50.219Z,4.03
2018-06-20T04:12:18.853Z,4.30
2018-06-20T04:14:47.479Z,4.20
2018-06-20T04:17:17.039Z,3.57
2018-06-20T04:19:45.786Z,4.10
2018-06-20T04:22:14.946Z,3.80
2018-06-20T04:24:44.138Z,4.30
2018-06-20T04:27:12.852Z,4.17
2018-06-20T04:29:41.544Z,3.50
2018-06-20T04:32:10.174Z,4.20
2018-06-20T04:34:40.666Z,4.57
2018-06-20T04:37:09.279Z,4.10
2018-06-20T04:39:38.791Z,3.70
2018-06-20T04:42:08.368Z,3.43
2018-06-20T04:44:37.124Z,3.70
2018-06-20T04:47:05.723Z,3.67
2018-06-20T04:49:34.403Z,3.60
2018-06-20T04:52:03.021Z,3.93
2018-06-20T04:54:31.629Z,3.60
2018-06-20T04:57:00.242Z,4.37
2018-06-20T04:59:28.909Z,3.77
2018-06-20T05:01:57.519Z,3.43
2018-06-20T05:04:26.167Z,3.57
2018-06-20T05:06:54.773Z,3.77
2018-06-20T05:09:23.366Z,3.63
2018-06-20T05:11:52.015Z,4.30
2018-06-20T05:14:21.377Z,3.47
2018-06-20T05:16:50.001Z,4.17
2018-06-20T05:19:18.611Z,4.10
2018-06-20T05:21:47.279Z,3.97
2018-06-20T05:24:15.879Z,3.80
2018-06-20T05:26:44.527Z,4.13
2018-06-20T05:29:13.196Z,4.13
2018-06-20T05:31:41.810Z,4.10
2018-06-20T05:34:11.377Z,4.70
2018-06-20T05:36:40.005Z,4.77
2018-06-20T05:39:10.398Z,3.77
2018-06-20T05:41:39.071Z,5.50
2018-06-20T05:44:08.214Z,4.40
2018-06-20T05:46:36.907Z,5.13
2018-06-20T05:49:05.753Z,4.53
2018-06-20T05:51:34.402Z,3.80
2018-06-20T05:54:03.069Z,4.70
2018-06-20T05:56:31.693Z,5.00
2018-06-20T05:59:00.306Z,4.33
2018-06-20T06:01:28.936Z,4.30
2018-06-20T06:06:31.328Z,5.10
2018-06-20T06:08:59.980Z,4.40
2018-06-20T06:11:28.598Z,4.90
2018-06-20T06:13:57.302Z,4.00
2018-06-20T06:16:25.935Z,4.60
2018-06-20T06:18:54.968Z,4.70
2018-06-20T06:21:23.575Z,4.93
2018-06-20T06:23:52.236Z,4.37
2018-06-20T06:26:20.858Z,4.60
2018-06-20T06:28:49.486Z,3.93
2018-06-20T06:31:18.111Z,4.20
2018-06-20T06:33:46.736Z,3.87
2018-06-20T06:36:15.409Z,3.90
2018-06-20T06:38:44.062Z,4.27
2018-06-20T06:41:12.738Z,4.30
2018-06-20T06:43:41.414Z,4.07
2018-06-20T06:46:10.113Z,5.70
2018-06-20T06:48:38.787Z,5.27
2018-06-20T06:51:07.430Z,4.10
2018-06-20T06:53:36.071Z,4.50
2018-06-20T06:56:04.827Z,4.27
2018-06-20T06:58:33.717Z,4.50
2018-06-20T07:01:02.350Z,4.00
2018-06-20T07:03:31.626Z,4.57
2018-06-20T07:06:00.303Z,3.63
2018-06-20T07:08:28.955Z,4.50
2018-06-20T07:10:57.622Z,4.80
2018-06-20T07:13:26.329Z,4.20
2018-06-20T07:15:55.102Z,4.97
2018-06-20T07:18:23.734Z,4.70
2018-06-20T07:20:52.425Z,4.23
2018-06-20T07:23:21.730Z,4.20
2018-06-20T07:25:50.374Z,4.40
2018-06-20T07:28:19.031Z,3.70
2018-06-20T07:30:47.708Z,4.73
2018-06-20T07:33:16.364Z,4.10
2018-06-20T07:35:45.049Z,4.00
2018-06-20T07:38:13.768Z,3.50
2018-06-20T07:40:42.467Z,4.00
2018-06-20T07:43:11.170Z,4.07
2018-06-20T07:45:40.583Z,4.00
2018-06-20T07:48:09.267Z,3.03
2018-06-20T07:50:37.987Z,4.10
2018-06-20T07:53:06.630Z,4.00
2018-06-20T07:55:35.297Z,4.00
2018-06-20T07:58:04.003Z,3.80
2018-06-20T08:00:37.975Z,3.80
2018-06-20T08:03:20.492Z,3.70
2018-06-20T08:05:54.519Z,3.90
2018-06-20T08:08:28.138Z,3.20
2018-06-20T08:11:01.811Z,4.83
2018-06-20T08:13:35.535Z,3.63
2018-06-20T08:16:09.326Z,4.00
2018-06-20T08:18:43.050Z,3.60
2018-06-20T08:21:11.746Z,4.60
2018-06-20T08:23:40.411Z,4.07
2018-06-20T08:26:09.085Z,4.23
2018-06-20T08:28:37.775Z,3.60
2018-06-20T08:31:06.414Z,4.50
2018-06-20T08:33:35.056Z,4.40
2018-06-20T08:36:03.723Z,4.50
2018-06-20T08:38:32.352Z,3.73
2018-06-20T08:41:00.998Z,4.30
2018-06-20T08:43:29.677Z,4.50
2018-06-20T08:45:58.311Z,3.87
2018-06-20T08:48:26.915Z,5.20
2018-06-20T08:50:55.581Z,4.50
2018-06-20T08:53:24.209Z,4.50
2018-06-20T08:55:52.871Z,4.40
2018-06-20T08:58:21.518Z,3.87
2018-06-20T09:01:02.913Z,4.23
2018-06-20T09:03:31.599Z,3.90
2018-06-20T09:06:05.357Z,4.07
2018-06-20T09:08:39.275Z,3.90
2018-06-20T09:11:12.958Z,3.90
2018-06-20T09:13:45.693Z,4.17
2018-06-20T09:16:19.637Z,4.20
2018-06-20T09:18:53.427Z,4.07
2018-06-20T09:21:22.088Z,3.60
2018-06-20T09:23:50.714Z,4.13
2018-06-20T09:26:19.339Z,4.50
2018-06-20T09:28:47.994Z,3.33
2018-06-20T09:31:16.609Z,3.60
2018-06-20T09:33:45.295Z,3.60
2018-06-20T09:36:13.960Z,3.80
2018-06-20T09:38:42.669Z,3.43
2018-06-20T09:41:11.295Z,3.50
2018-06-20T09:43:39.951Z,3.63
2018-06-20T09:46:08.637Z,3.27
2018-06-20T09:48:37.244Z,3.47
2018-06-20T09:51:05.970Z,3.47
2018-06-20T09:53:34.602Z,3.60
2018-06-20T09:56:03.275Z,3.77
2018-06-20T09:58:32.010Z,3.67
2018-06-20T10:01:05.845Z,3.30
2018-06-20T10:03:39.551Z,3.50
2018-06-20T10:06:13.379Z,3.60
2018-06-20T10:08:47.396Z,3.80
2018-06-20T10:11:21.144Z,3.37
2018-06-20T10:13:51.457Z,3.77
2018-06-20T10:16:25.427Z,3.53
2018-06-20T10:18:54.035Z,3.37
2018-06-20T10:21:22.741Z,3.10
2018-06-20T10:23:51.471Z,3.80
2018-06-20T10:26:20.114Z,3.10
2018-06-20T10:28:48.803Z,2.93
2018-06-20T10:31:17.474Z,3.47
2018-06-20T10:33:46.175Z,3.43
2018-06-20T10:36:14.859Z,2.90
2018-06-20T10:38:43.564Z,4.10
2018-06-20T10:41:12.238Z,3.90
2018-06-20T10:43:48.024Z,3.70
2018-06-20T10:46:22.138Z,3.47
2018-06-20T10:48:51.334Z,3.30
2018-06-20T10:51:20.065Z,3.20
2018-06-20T10:53:48.765Z,3.10
2018-06-20T10:56:23.223Z,3.30
2018-06-20T10:58:56.935Z,3.33
2018-06-20T11:01:30.638Z,3.07
2018-06-20T11:04:04.602Z,2.83
2018-06-20T11:06:38.295Z,2.93
2018-06-20T11:11:19.272Z,3.07
2018-06-20T11:13:48.087Z,3.17
2018-06-20T11:16:16.766Z,3.30
2018-06-20T11:18:48.778Z,3.47
2018-06-20T11:21:17.371Z,3.00
2018-06-20T11:23:46.001Z,3.13
2018-06-20T11:26:14.694Z,2.70
2018-06-20T11:28:43.340Z,2.93
2018-06-20T11:31:11.990Z,3.10
2018-06-20T11:33:41.266Z,3.00
2018-06-20T11:36:09.908Z,3.33
2018-06-20T11:38:38.534Z,3.30
2018-06-20T11:41:07.218Z,2.40
2018-06-20T11:43:35.907Z,2.83
2018-06-20T11:46:09.591Z,2.83
2018-06-20T11:48:38.190Z,2.50
2018-06-20T11:51:07.254Z,3.03
2018-06-20T11:53:36.763Z,2.47
2018-06-20T11:56:05.410Z,3.27
2018-06-20T11:58:39.119Z,2.70
2018-06-20T12:01:12.769Z,3.40
2018-06-20T12:03:46.479Z,2.90
2018-06-20T12:06:20.260Z,2.80
2018-06-20T12:08:54.091Z,3.57
2018-06-20T12:11:27.923Z,2.90
2018-06-20T12:14:01.640Z,2.60
2018-06-20T12:16:30.238Z,2.80
2018-06-20T12:19:03.990Z,2.43
2018-06-20T12:21:37.741Z,3.10
2018-06-20T12:24:11.563Z,2.97
2018-06-20T12:26:45.261Z,2.87
2018-06-20T12:29:19.180Z,3.47
2018-06-20T12:31:52.937Z,2.97
2018-06-20T12:34:26.745Z,3.10
2018-06-20T12:37:00.522Z,2.87
2018-06-20T12:39:28.391Z,2.70
2018-06-20T12:42:02.142Z,3.47
2018-06-20T12:44:35.798Z,2.80
2018-06-20T12:48:10.732Z,3.20
2018-06-20T12:50:40.003Z,2.93
2018-06-20T12:53:08.659Z,2.60
2018-06-20T12:55:37.368Z,3.07
2018-06-20T12:58:06.149Z,3.20
2018-06-20T13:00:34.799Z,2.83
2018-06-20T13:03:03.463Z,3.00
2018-06-20T13:05:32.376Z,3.10
2018-06-20T13:08:01.042Z,2.90
2018-06-20T13:10:29.685Z,2.80
2018-06-20T13:12:58.355Z,3.00
2018-06-20T13:15:26.986Z,3.60
2018-06-20T13:17:55.626Z,2.70
2018-06-20T13:20:24.280Z,3.60
2018-06-20T13:22:52.906Z,3.07
2018-06-20T13:25:21.510Z,3.20
2018-06-20T13:27:50.180Z,2.97
2018-06-20T13:30:18.850Z,2.80
2018-06-20T13:32:52.614Z,3.10
2018-06-20T13:35:26.363Z,2.83
2018-06-20T13:38:00.100Z,2.80
2018-06-20T13:40:33.906Z,3.47
2018-06-20T13:43:07.827Z,3.00
2018-06-20T13:45:41.614Z,3.00
2018-06-20T13:48:15.355Z,4.10
2018-06-20T13:50:44.112Z,2.97
2018-06-20T13:53:12.786Z,3.50
2018-06-20T13:55:41.719Z,3.43
2018-06-20T13:58:13.062Z,3.20
2018-06-20T14:00:41.908Z,3.57
2018-06-20T14:03:10.542Z,2.60
2018-06-20T14:05:39.167Z,2.73
2018-06-20T14:08:07.920Z,2.70
2018-06-20T14:10:36.561Z,3.00
2018-06-20T14:13:05.227Z,3.00
2018-06-20T14:15:33.935Z,3.00
2018-06-20T14:18:02.562Z,2.70
2018-06-20T14:20:36.423Z,2.47
2018-06-20T14:23:05.056Z,2.70
2018-06-20T14:25:33.662Z,2.60
2018-06-20T14:28:02.350Z,2.80
2018-06-20T14:30:36.174Z,2.67
2018-06-20T14:33:09.935Z,2.70
2018-06-20T14:35:43.620Z,2.37
2018-06-20T14:38:17.529Z,3.10
2018-06-20T14:40:51.355Z,2.70
2018-06-20T14:43:25.085Z,2.05
2018-06-20T14:45:58.768Z,2.42
2018-06-20T14:48:27.391Z,3.37
2018-06-20T14:50:56.058Z,2.90
2018-06-20T14:53:24.658Z,3.20
2018-06-20T14:55:53.308Z,2.92
2018-06-20T14:58:21.908Z,2.60
2018-06-20T15:00:50.567Z,2.87
2018-06-20T15:03:19.190Z,2.35
2018-06-20T15:05:47.838Z,2.40
2018-06-20T15:08:16.529Z,2.47
2018-06-20T15:10:45.199Z,2.55
2018-06-20T15:13:13.830Z,2.37
2018-06-20T15:15:42.799Z,2.20
2018-06-20T15:18:17.078Z,2.80
2018-06-20T15:20:45.714Z,2.30
2018-06-20T15:23:14.338Z,2.00
2018-06-20T15:25:47.107Z,2.35
2018-06-20T15:28:20.765Z,2.00
2018-06-20T15:30:54.468Z,2.20
2018-06-20T15:33:28.225Z,2.25
2018-06-20T15:36:02.024Z,2.70
2018-06-20T15:38:30.684Z,2.60
2018-06-20T15:40:59.337Z,2.30
2018-06-20T15:43:27.969Z,2.25
2018-06-20T15:45:56.610Z,1.90
2018-06-20T15:48:25.238Z,2.17
2018-06-20T15:50:53.881Z,2.33
2018-06-20T15:53:22.766Z,2.35
2018-06-20T15:55:51.396Z,2.70
2018-06-20T15:58:20.146Z,1.87
2018-06-20T16:00:49.003Z,2.58
2018-06-20T16:03:17.631Z,2.75
2018-06-20T16:05:46.365Z,2.80
2018-06-20T16:08:15.262Z,2.47
2018-06-20T16:10:43.953Z,2.65
2018-06-20T16:13:12.565Z,2.75
2018-06-20T16:15:41.209Z,2.40
2018-06-20T16:18:10.002Z,2.25
2018-06-20T16:20:43.883Z,2.70
2018-06-20T16:23:17.626Z,2.37
2018-06-20T16:25:51.426Z,2.80
2018-06-20T16:28:25.097Z,2.93
2018-06-20T16:30:53.814Z,2.53
2018-06-20T16:33:22.466Z,2.37
2018-06-20T16:35:51.128Z,2.17
2018-06-20T16:38:19.838Z,2.35
2018-06-20T16:40:48.505Z,1.60
2018-06-20T16:43:17.145Z,2.30
2018-06-20T16:45:46.348Z,2.30
2018-06-20T16:48:15.060Z,2.45
2018-06-20T16:50:43.716Z,2.10
2018-06-20T16:53:12.335Z,1.80
2018-06-20T16:55:41.039Z,2.30
2018-06-20T16:58:09.665Z,2.02
2018-06-20T17:00:38.270Z,2.00
2018-06-20T17:03:06.956Z,2.12
2018-06-20T17:05:35.570Z,2.20
2018-06-20T17:08:04.274Z,2.27
2018-06-20T17:10:32.894Z,2.47
2018-06-20T17:13:06.640Z,1.77
2018-06-20T17:15:40.301Z,2.22
2018-06-20T17:18:14.215Z,1.85
2018-06-20T17:20:47.997Z,2.33
2018-06-20T17:23:21.681Z,2.15
2018-06-20T17:25:50.361Z,2.05
2018-06-20T17:28:18.994Z,2.22
2018-06-20T17:30:47.635Z,1.90
2018-06-20T17:33:16.264Z,1.98
2018-06-20T17:35:44.880Z,1.75
2018-06-20T17:38:13.592Z,2.58
2018-06-20T17:40:42.210Z,2.33
2018-06-20T17:43:10.832Z,1.87
2018-06-20T17:45:39.511Z,1.77
2018-06-20T17:48:08.253Z,2.05
2018-06-20T17:50:36.854Z,2.50
2018-06-20T17:53:05.515Z,2.27
2018-06-20T17:55:34.203Z,2.20
2018-06-20T17:58:02.829Z,2.65
2018-06-20T18:00:31.552Z,2.22
2018-06-20T18:03:00.159Z,2.50
2018-06-20T18:07:37.870Z,2.35
2018-06-20T18:10:11.506Z,3.15
2018-06-20T18:12:45.172Z,2.63
2018-06-20T18:15:18.807Z,2.97
2018-06-20T18:17:47.458Z,2.67
2018-06-20T18:20:16.107Z,2.70
2018-06-20T18:22:44.780Z,3.17
2018-06-20T18:25:13.452Z,3.40
2018-06-20T18:27:42.087Z,3.80
2018-06-20T18:30:10.814Z,4.40
2018-06-20T18:32:39.464Z,4.03
2018-06-20T18:35:08.090Z,4.17
2018-06-20T18:37:36.870Z,3.80
2018-06-20T18:40:07.763Z,3.67
2018-06-20T18:42:36.649Z,3.93
2018-06-20T18:45:06.394Z,4.20
2018-06-20T18:47:40.300Z,4.37
2018-06-20T18:50:09.520Z,5.13
2018-06-20T18:52:38.325Z,4.53
2018-06-20T18:55:07.154Z,4.83
2018-06-20T18:57:40.893Z,4.20
2018-06-20T19:00:14.754Z,4.77
2018-06-20T19:02:48.507Z,3.73
2018-06-20T19:05:22.304Z,4.50
2018-06-20T19:07:56.400Z,4.27
2018-06-20T19:10:25.946Z,4.10
2018-06-20T19:12:54.598Z,4.17
2018-06-20T19:15:23.311Z,4.50
2018-06-20T19:17:52.004Z,4.53
2018-06-20T19:20:20.700Z,4.33
2018-06-20T19:22:49.414Z,4.37
2018-06-20T19:25:18.272Z,4.60
2018-06-20T19:27:47.278Z,4.07
2018-06-20T19:30:15.956Z,4.30
2018-06-20T19:32:44.676Z,4.70
2018-06-20T19:35:13.487Z,4.83
2018-06-20T19:37:42.191Z,4.33
2018-06-20T19:40:17.896Z,4.17
2018-06-20T19:42:46.690Z,4.50
2018-06-20T19:45:15.460Z,4.50
2018-06-20T19:47:44.187Z,5.00
2018-06-20T19:50:12.948Z,4.60
2018-06-20T19:52:42.950Z,4.37
2018-06-20T19:55:12.045Z,4.50
2018-06-20T19:57:40.766Z,4.37
2018-06-20T20:00:09.647Z,4.57
2018-06-20T20:02:38.572Z,4.70
2018-06-20T20:05:08.641Z,4.43
2018-06-20T20:07:37.345Z,3.90
2018-06-20T20:10:06.496Z,4.00
2018-06-20T20:12:37.131Z,4.20
2018-06-20T20:17:44.531Z,5.30
2018-06-20T20:20:18.183Z,4.70
2018-06-20T20:35:37.010Z,5.33
2018-06-20T20:38:05.761Z,5.33
2018-06-20T20:40:34.803Z,5.50
2018-06-20T20:43:03.807Z,5.10
2018-06-20T20:45:32.410Z,5.47
2018-06-20T20:48:01.066Z,5.30
2018-06-20T20:50:30.132Z,6.03
2018-06-20T20:52:58.898Z,5.10
2018-06-20T20:55:27.673Z,5.17
2018-06-20T20:57:56.495Z,5.77
2018-06-20T21:00:25.138Z,5.03
2018-06-20T21:02:54.225Z,5.23
2018-06-20T21:05:27.152Z,5.13
2018-06-20T21:07:55.980Z,4.90
2018-06-20T21:10:25.012Z,5.50
2018-06-20T21:12:54.605Z,5.60
2018-06-20T21:15:24.327Z,5.37
2018-06-20T21:17:53.168Z,5.10
2018-06-20T21:20:22.683Z,5.30
2018-06-20T21:22:51.654Z,5.10
2018-06-20T21:25:20.532Z,5.90
2018-06-20T21:27:51.559Z,6.03
2018-06-20T21:30:22.431Z,5.60
2018-06-20T21:32:51.163Z,6.10
2018-06-20T21:35:21.329Z,6.43
2018-06-20T21:37:51.357Z,6.40
2018-06-20T21:40:20.241Z,6.20
2018-06-20T21:42:51.019Z,6.70
2018-06-20T21:45:24.265Z,6.27
2018-06-20T21:47:58.986Z,7.30
2018-06-20T21:50:28.511Z,6.70
2018-06-20T21:52:58.997Z,6.40
2018-06-20T21:55:30.344Z,6.67
2018-06-20T21:57:59.725Z,7.17
2018-06-20T22:00:29.745Z,7.00
2018-06-20T22:15:49.650Z,7.80
2018-06-20T22:18:18.368Z,7.60
2018-06-20T22:20:47.038Z,7.57
2018-06-20T22:23:16.355Z,7.53
2018-06-20T22:25:45.074Z,8.17
2018-06-20T22:28:13.731Z,7.23
2018-06-20T22:30:42.997Z,7.50
2018-06-20T22:33:11.618Z,7.40
2018-06-20T22:35:40.231Z,7.53
2018-06-20T22:38:08.981Z,8.10
2018-06-20T22:40:37.621Z,7.03
2018-06-20T22:43:06.263Z,7.60
2018-06-20T22:45:34.905Z,7.33
2018-06-20T22:48:03.564Z,7.53
2018-06-20T22:50:32.960Z,7.67
2018-06-20T22:53:01.678Z,7.60
2018-06-20T22:55:30.334Z,7.73
2018-06-20T22:57:58.949Z,7.17
2018-06-20T23:00:27.598Z,7.00
2018-06-20T23:02:57.814Z,7.40
2018-06-20T23:05:31.785Z,7.40
2018-06-20T23:08:00.404Z,7.20
2018-06-20T23:10:29.021Z,7.50
2018-06-20T23:12:57.716Z,7.07
2018-06-20T23:15:26.407Z,7.20
2018-06-20T23:17:55.054Z,6.97
2018-06-20T23:20:23.692Z,8.07
2018-06-20T23:22:52.302Z,8.20
2018-06-20T23:25:20.923Z,7.33
2018-06-20T23:27:49.625Z,7.80
2018-06-20T23:30:18.275Z,8.40
2018-06-20T23:32:46.888Z,7.67
2018-06-20T23:35:15.577Z,7.93
2018-06-20T23:37:44.190Z,7.63
2018-06-20T23:40:12.814Z,8.30
2018-06-20T23:42:41.451Z,8.03
2018-06-20T23:45:10.189Z,7.97
2018-06-20T23:47:38.895Z,9.50
2018-06-20T23:50:07.585Z,9.37
2018-06-20T23:52:36.211Z,8.40
2018-06-20T23:55:05.095Z,8.37
2018-06-20T23:57:33.938Z,8.90
